Ana Sayfa
METAR-TAF:

METAR-TAF

Havaalanları :

Satu Mare, Romanya

Enlem: 47-48N, Boylam: 022-53E, yükseklik: 123 m

Güncel hava durumu gözlemi

Rapor saat 23:30 UTC de 41 dakika önce yapıldı.
Rüzgar güneydan 7 kt
Sıcaklık 11°C
Nem 62%
Basınç 1001 hPa
Görüş mesafesi 10 km veya daha fazla
şiddetli yağmur

METAR: LRSM 252330Z AUTO 19007KT 9999 +RA OVC085/// 11/04 Q1001

Saat: 02:11 (00:11 UTC)

Tahmin

Rapor saat 14:00 UTC de 10 saat ve 11 dakika önce yapıldı.
Ayın 25'si saat 15 UTC'den ayın 25'si saat 24 UTC'ye kadar geçerli Tahmin
Rüzgar güney/güneydoğudan 8 kt
Görüş mesafesi 10 km veya daha fazla
1500 m altında bulut yok ve kümülonimbus yok

TAF: LRSM 251400Z 2515/2524 16008KT CAVOK

4.000'den fazla havaalanı için hava durumu gözlemleri ve tahminleri (METAR ve TAF raporları).

Kullanılabilir istasyonlar harita üzerinde sarı ve kırmızı noktalarla gösterilir.

İstasyonun adını görmek için fareyi noktanın üzerinde gezdirin.

Sonrasında hava gözlem ve tahminlerini görmek için tıklayın.

Haritayı değiştirmek için: yaklaştırmak için siyah artı işaretli yeşil düğmeye ve uzaklaştırmak için de eksi işaretli düğmeye hızla tıklayın; bitişik haritalar için yeşil okları kullanın.


METAR-TAF: